sensor_id;sensor_type;location;lat;lon;timestamp;P1;durP1;ratioP1;P2;durP2;ratioP2
3941;SDS011;1985;48.592;8.850;2024-03-02T00:00:18;16.23;;;5.30;;
3941;SDS011;1985;48.592;8.850;2024-03-02T00:02:46;17.50;;;7.25;;
3941;SDS011;1985;48.592;8.850;2024-03-02T00:05:14;16.37;;;5.80;;
3941;SDS011;1985;48.592;8.850;2024-03-02T00:07:41;19.13;;;7.27;;
3941;SDS011;1985;48.592;8.850;2024-03-02T00:10:08;17.75;;;7.60;;
3941;SDS011;1985;48.592;8.850;2024-03-02T00:12:36;18.58;;;7.45;;
3941;SDS011;1985;48.592;8.850;2024-03-02T00:15:04;19.38;;;7.68;;
3941;SDS011;1985;48.592;8.850;2024-03-02T00:17:53;19.85;;;8.43;;
3941;SDS011;1985;48.592;8.850;2024-03-02T00:20:19;20.02;;;8.65;;
3941;SDS011;1985;48.592;8.850;2024-03-02T00:22:47;21.35;;;8.82;;
3941;SDS011;1985;48.592;8.850;2024-03-02T00:25:14;19.33;;;7.25;;
3941;SDS011;1985;48.592;8.850;2024-03-02T00:27:39;17.25;;;7.30;;
3941;SDS011;1985;48.592;8.850;2024-03-02T00:30:06;18.38;;;7.30;;
3941;SDS011;1985;48.592;8.850;2024-03-02T00:32:56;16.00;;;6.97;;
3941;SDS011;1985;48.592;8.850;2024-03-02T00:35:23;19.08;;;8.27;;
3941;SDS011;1985;48.592;8.850;2024-03-02T00:37:49;19.08;;;8.30;;
3941;SDS011;1985;48.592;8.850;2024-03-02T00:40:15;18.50;;;7.77;;
3941;SDS011;1985;48.592;8.850;2024-03-02T00:42:41;21.07;;;8.60;;
3941;SDS011;1985;48.592;8.850;2024-03-02T00:45:07;15.47;;;6.60;;
3941;SDS011;1985;48.592;8.850;2024-03-02T00:47:37;19.52;;;8.15;;
3941;SDS011;1985;48.592;8.850;2024-03-02T00:50:06;23.17;;;9.30;;
3941;SDS011;1985;48.592;8.850;2024-03-02T00:52:33;21.42;;;8.93;;
3941;SDS011;1985;48.592;8.850;2024-03-02T00:54:59;16.45;;;7.15;;
3941;SDS011;1985;48.592;8.850;2024-03-02T00:57:33;18.53;;;7.37;;
3941;SDS011;1985;48.592;8.850;2024-03-02T01:00:02;21.63;;;8.60;;
3941;SDS011;1985;48.592;8.850;2024-03-02T01:02:32;21.67;;;9.02;;
3941;SDS011;1985;48.592;8.850;2024-03-02T01:04:57;20.58;;;8.07;;
3941;SDS011;1985;48.592;8.850;2024-03-02T01:07:23;17.10;;;7.40;;
3941;SDS011;1985;48.592;8.850;2024-03-02T01:09:49;18.00;;;7.63;;
3941;SDS011;1985;48.592;8.850;2024-03-02T01:12:14;19.00;;;8.47;;
3941;SDS011;1985;48.592;8.850;2024-03-02T01:14:40;19.90;;;8.32;;
3941;SDS011;1985;48.592;8.850;2024-03-02T01:17:05;17.13;;;7.88;;
3941;SDS011;1985;48.592;8.850;2024-03-02T01:19:31;22.30;;;8.50;;
3941;SDS011;1985;48.592;8.850;2024-03-02T01:21:57;16.88;;;7.10;;
3941;SDS011;1985;48.592;8.850;2024-03-02T01:24:22;20.70;;;9.13;;
3941;SDS011;1985;48.592;8.850;2024-03-02T01:26:48;19.67;;;7.73;;
3941;SDS011;1985;48.592;8.850;2024-03-02T01:29:14;17.77;;;7.67;;
3941;SDS011;1985;48.592;8.850;2024-03-02T01:31:40;18.65;;;8.43;;
3941;SDS011;1985;48.592;8.850;2024-03-02T01:34:07;18.60;;;8.15;;
3941;SDS011;1985;48.592;8.850;2024-03-02T01:36:33;18.27;;;8.13;;
3941;SDS011;1985;48.592;8.850;2024-03-02T01:38:59;20.35;;;7.90;;
3941;SDS011;1985;48.592;8.850;2024-03-02T01:41:24;20.00;;;9.20;;
3941;SDS011;1985;48.592;8.850;2024-03-02T01:43:50;19.60;;;8.17;;
3941;SDS011;1985;48.592;8.850;2024-03-02T01:46:16;19.50;;;8.57;;
3941;SDS011;1985;48.592;8.850;2024-03-02T01:48:42;19.90;;;8.82;;
3941;SDS011;1985;48.592;8.850;2024-03-02T01:51:07;20.27;;;8.97;;
3941;SDS011;1985;48.592;8.850;2024-03-02T01:53:33;20.05;;;8.50;;
3941;SDS011;1985;48.592;8.850;2024-03-02T01:56:00;22.23;;;8.90;;
3941;SDS011;1985;48.592;8.850;2024-03-02T01:58:26;20.02;;;9.40;;
3941;SDS011;1985;48.592;8.850;2024-03-02T02:00:52;21.63;;;8.88;;
3941;SDS011;1985;48.592;8.850;2024-03-02T02:03:18;22.05;;;9.00;;
3941;SDS011;1985;48.592;8.850;2024-03-02T02:05:43;21.33;;;9.07;;
3941;SDS011;1985;48.592;8.850;2024-03-02T02:08:09;23.33;;;8.80;;
3941;SDS011;1985;48.592;8.850;2024-03-02T02:10:35;24.15;;;9.55;;
3941;SDS011;1985;48.592;8.850;2024-03-02T02:13:01;21.90;;;8.70;;
3941;SDS011;1985;48.592;8.850;2024-03-02T02:15:30;21.50;;;9.68;;
3941;SDS011;1985;48.592;8.850;2024-03-02T02:17:57;20.25;;;9.00;;
3941;SDS011;1985;48.592;8.850;2024-03-02T02:20:24;20.92;;;9.35;;
3941;SDS011;1985;48.592;8.850;2024-03-02T02:23:00;20.65;;;9.95;;
3941;SDS011;1985;48.592;8.850;2024-03-02T02:25:27;22.88;;;10.02;;
3941;SDS011;1985;48.592;8.850;2024-03-02T02:27:54;21.35;;;9.80;;
3941;SDS011;1985;48.592;8.850;2024-03-02T02:30:27;21.85;;;10.02;;
3941;SDS011;1985;48.592;8.850;2024-03-02T02:32:55;19.63;;;8.77;;
3941;SDS011;1985;48.592;8.850;2024-03-02T02:35:21;21.17;;;9.52;;
3941;SDS011;1985;48.592;8.850;2024-03-02T02:37:47;22.42;;;9.88;;
3941;SDS011;1985;48.592;8.850;2024-03-02T02:40:13;21.77;;;10.00;;
3941;SDS011;1985;48.592;8.850;2024-03-02T02:42:39;26.15;;;11.23;;
3941;SDS011;1985;48.592;8.850;2024-03-02T02:45:07;23.53;;;10.77;;
3941;SDS011;1985;48.592;8.850;2024-03-02T02:47:34;19.17;;;8.73;;
3941;SDS011;1985;48.592;8.850;2024-03-02T02:50:03;28.70;;;11.48;;
3941;SDS011;1985;48.592;8.850;2024-03-02T02:52:32;22.08;;;10.70;;
3941;SDS011;1985;48.592;8.850;2024-03-02T02:55:04;22.60;;;10.45;;
3941;SDS011;1985;48.592;8.850;2024-03-02T02:57:32;20.63;;;9.25;;
3941;SDS011;1985;48.592;8.850;2024-03-02T03:00:09;24.63;;;11.27;;
3941;SDS011;1985;48.592;8.850;2024-03-02T03:02:43;21.77;;;9.55;;
3941;SDS011;1985;48.592;8.850;2024-03-02T03:05:13;29.27;;;12.52;;
3941;SDS011;1985;48.592;8.850;2024-03-02T03:07:40;24.63;;;12.40;;
3941;SDS011;1985;48.592;8.850;2024-03-02T03:10:07;24.75;;;11.88;;
3941;SDS011;1985;48.592;8.850;2024-03-02T03:12:34;23.92;;;10.50;;
3941;SDS011;1985;48.592;8.850;2024-03-02T03:15:00;22.05;;;10.50;;
3941;SDS011;1985;48.592;8.850;2024-03-02T03:17:26;24.07;;;12.00;;
3941;SDS011;1985;48.592;8.850;2024-03-02T03:19:52;23.30;;;10.75;;
3941;SDS011;1985;48.592;8.850;2024-03-02T03:22:18;26.52;;;12.18;;
3941;SDS011;1985;48.592;8.850;2024-03-02T03:24:44;23.05;;;10.77;;
3941;SDS011;1985;48.592;8.850;2024-03-02T03:27:09;22.07;;;10.80;;
3941;SDS011;1985;48.592;8.850;2024-03-02T03:29:36;24.75;;;11.38;;
3941;SDS011;1985;48.592;8.850;2024-03-02T03:32:02;25.45;;;11.20;;
3941;SDS011;1985;48.592;8.850;2024-03-02T03:34:28;22.45;;;10.43;;
3941;SDS011;1985;48.592;8.850;2024-03-02T03:36:54;23.90;;;10.23;;
3941;SDS011;1985;48.592;8.850;2024-03-02T03:39:20;21.52;;;10.07;;
3941;SDS011;1985;48.592;8.850;2024-03-02T03:41:45;26.40;;;12.23;;
3941;SDS011;1985;48.592;8.850;2024-03-02T03:44:11;24.20;;;10.63;;
3941;SDS011;1985;48.592;8.850;2024-03-02T03:46:37;24.47;;;11.67;;
3941;SDS011;1985;48.592;8.850;2024-03-02T03:49:03;24.45;;;11.13;;
3941;SDS011;1985;48.592;8.850;2024-03-02T03:51:28;23.33;;;10.70;;
3941;SDS011;1985;48.592;8.850;2024-03-02T03:53:55;26.67;;;12.10;;
3941;SDS011;1985;48.592;8.850;2024-03-02T03:56:21;24.30;;;11.10;;
3941;SDS011;1985;48.592;8.850;2024-03-02T03:58:46;25.58;;;12.02;;
3941;SDS011;1985;48.592;8.850;2024-03-02T04:01:12;22.65;;;11.02;;
3941;SDS011;1985;48.592;8.850;2024-03-02T04:03:38;24.67;;;12.20;;
3941;SDS011;1985;48.592;8.850;2024-03-02T04:06:04;26.83;;;12.75;;
3941;SDS011;1985;48.592;8.850;2024-03-02T04:08:29;24.13;;;11.43;;
3941;SDS011;1985;48.592;8.850;2024-03-02T04:10:55;26.20;;;11.77;;
3941;SDS011;1985;48.592;8.850;2024-03-02T04:13:21;25.00;;;11.93;;
3941;SDS011;1985;48.592;8.850;2024-03-02T04:15:46;23.98;;;10.90;;
3941;SDS011;1985;48.592;8.850;2024-03-02T04:18:12;24.15;;;12.90;;
3941;SDS011;1985;48.592;8.850;2024-03-02T04:20:38;22.47;;;10.43;;
3941;SDS011;1985;48.592;8.850;2024-03-02T04:23:03;27.50;;;12.63;;
3941;SDS011;1985;48.592;8.850;2024-03-02T04:25:29;22.42;;;11.32;;
3941;SDS011;1985;48.592;8.850;2024-03-02T04:27:55;23.53;;;11.30;;
3941;SDS011;1985;48.592;8.850;2024-03-02T04:30:20;28.83;;;12.70;;
3941;SDS011;1985;48.592;8.850;2024-03-02T04:32:46;25.35;;;12.02;;
3941;SDS011;1985;48.592;8.850;2024-03-02T04:35:12;24.55;;;11.65;;
3941;SDS011;1985;48.592;8.850;2024-03-02T04:37:38;24.50;;;11.63;;
3941;SDS011;1985;48.592;8.850;2024-03-02T04:40:04;22.17;;;11.13;;
3941;SDS011;1985;48.592;8.850;2024-03-02T04:42:33;23.80;;;11.63;;
3941;SDS011;1985;48.592;8.850;2024-03-02T04:44:59;23.23;;;10.85;;
3941;SDS011;1985;48.592;8.850;2024-03-02T04:47:25;24.02;;;11.43;;
3941;SDS011;1985;48.592;8.850;2024-03-02T04:49:51;24.85;;;11.75;;
3941;SDS011;1985;48.592;8.850;2024-03-02T04:52:16;24.40;;;10.50;;
3941;SDS011;1985;48.592;8.850;2024-03-02T04:54:42;26.70;;;12.45;;
3941;SDS011;1985;48.592;8.850;2024-03-02T04:57:26;29.08;;;13.15;;
3941;SDS011;1985;48.592;8.850;2024-03-02T04:59:52;26.80;;;13.07;;
3941;SDS011;1985;48.592;8.850;2024-03-02T05:02:17;26.83;;;13.38;;
3941;SDS011;1985;48.592;8.850;2024-03-02T05:04:43;25.50;;;11.70;;
3941;SDS011;1985;48.592;8.850;2024-03-02T05:07:09;27.08;;;12.70;;
3941;SDS011;1985;48.592;8.850;2024-03-02T05:09:35;29.60;;;12.10;;
3941;SDS011;1985;48.592;8.850;2024-03-02T05:12:00;25.33;;;11.73;;
3941;SDS011;1985;48.592;8.850;2024-03-02T05:14:54;27.25;;;12.63;;
3941;SDS011;1985;48.592;8.850;2024-03-02T05:17:21;25.02;;;12.10;;
3941;SDS011;1985;48.592;8.850;2024-03-02T05:19:46;21.87;;;10.03;;
3941;SDS011;1985;48.592;8.850;2024-03-02T05:22:12;22.48;;;10.68;;
3941;SDS011;1985;48.592;8.850;2024-03-02T05:24:37;24.33;;;11.20;;
3941;SDS011;1985;48.592;8.850;2024-03-02T05:27:03;25.37;;;11.93;;
3941;SDS011;1985;48.592;8.850;2024-03-02T05:29:29;25.42;;;11.30;;
3941;SDS011;1985;48.592;8.850;2024-03-02T05:31:55;22.88;;;10.80;;
3941;SDS011;1985;48.592;8.850;2024-03-02T05:34:20;26.33;;;11.80;;
3941;SDS011;1985;48.592;8.850;2024-03-02T05:36:46;27.10;;;12.20;;
3941;SDS011;1985;48.592;8.850;2024-03-02T05:39:12;23.80;;;10.52;;
3941;SDS011;1985;48.592;8.850;2024-03-02T05:41:37;26.07;;;13.43;;
3941;SDS011;1985;48.592;8.850;2024-03-02T05:44:03;25.20;;;11.83;;
3941;SDS011;1985;48.592;8.850;2024-03-02T05:46:29;23.23;;;11.10;;
3941;SDS011;1985;48.592;8.850;2024-03-02T05:48:55;23.87;;;11.07;;
3941;SDS011;1985;48.592;8.850;2024-03-02T05:51:21;22.50;;;9.73;;
3941;SDS011;1985;48.592;8.850;2024-03-02T05:53:46;24.20;;;11.70;;
3941;SDS011;1985;48.592;8.850;2024-03-02T05:56:12;25.38;;;11.27;;
3941;SDS011;1985;48.592;8.850;2024-03-02T05:58:38;23.00;;;10.87;;
3941;SDS011;1985;48.592;8.850;2024-03-02T06:01:24;25.88;;;11.63;;
3941;SDS011;1985;48.592;8.850;2024-03-02T06:03:54;27.53;;;12.17;;
3941;SDS011;1985;48.592;8.850;2024-03-02T06:06:23;25.83;;;13.00;;
3941;SDS011;1985;48.592;8.850;2024-03-02T06:08:49;26.33;;;13.30;;
3941;SDS011;1985;48.592;8.850;2024-03-02T06:11:15;27.88;;;13.02;;
3941;SDS011;1985;48.592;8.850;2024-03-02T06:13:41;28.05;;;13.68;;
3941;SDS011;1985;48.592;8.850;2024-03-02T06:16:07;26.10;;;13.50;;
3941;SDS011;1985;48.592;8.850;2024-03-02T06:18:33;25.02;;;12.10;;
3941;SDS011;1985;48.592;8.850;2024-03-02T06:20:59;28.75;;;13.32;;
3941;SDS011;1985;48.592;8.850;2024-03-02T06:23:26;26.90;;;12.05;;
3941;SDS011;1985;48.592;8.850;2024-03-02T06:25:52;24.30;;;11.27;;
3941;SDS011;1985;48.592;8.850;2024-03-02T06:28:18;25.08;;;11.88;;
3941;SDS011;1985;48.592;8.850;2024-03-02T06:30:43;26.80;;;12.83;;
3941;SDS011;1985;48.592;8.850;2024-03-02T06:33:10;26.30;;;12.43;;
3941;SDS011;1985;48.592;8.850;2024-03-02T06:35:36;25.80;;;12.23;;
3941;SDS011;1985;48.592;8.850;2024-03-02T06:38:02;25.02;;;12.25;;
3941;SDS011;1985;48.592;8.850;2024-03-02T06:40:27;22.13;;;11.70;;
3941;SDS011;1985;48.592;8.850;2024-03-02T06:42:53;24.00;;;10.57;;
3941;SDS011;1985;48.592;8.850;2024-03-02T06:45:18;24.92;;;11.70;;
3941;SDS011;1985;48.592;8.850;2024-03-02T06:47:44;24.60;;;11.20;;
3941;SDS011;1985;48.592;8.850;2024-03-02T06:50:10;24.90;;;11.43;;
3941;SDS011;1985;48.592;8.850;2024-03-02T06:52:36;25.30;;;11.10;;
3941;SDS011;1985;48.592;8.850;2024-03-02T06:55:02;24.63;;;11.10;;
3941;SDS011;1985;48.592;8.850;2024-03-02T06:57:29;27.00;;;12.68;;
3941;SDS011;1985;48.592;8.850;2024-03-02T06:59:55;26.63;;;12.20;;
3941;SDS011;1985;48.592;8.850;2024-03-02T07:02:23;35.80;;;11.45;;
3941;SDS011;1985;48.592;8.850;2024-03-02T07:04:52;29.02;;;13.00;;
3941;SDS011;1985;48.592;8.850;2024-03-02T07:07:18;26.60;;;11.88;;
3941;SDS011;1985;48.592;8.850;2024-03-02T07:09:44;22.30;;;11.30;;
3941;SDS011;1985;48.592;8.850;2024-03-02T07:12:10;25.00;;;11.97;;
3941;SDS011;1985;48.592;8.850;2024-03-02T07:14:36;23.80;;;11.57;;
3941;SDS011;1985;48.592;8.850;2024-03-02T07:17:19;27.17;;;12.50;;
3941;SDS011;1985;48.592;8.850;2024-03-02T07:19:45;25.67;;;12.88;;
3941;SDS011;1985;48.592;8.850;2024-03-02T07:22:11;25.70;;;12.35;;
3941;SDS011;1985;48.592;8.850;2024-03-02T07:24:42;25.27;;;11.70;;
3941;SDS011;1985;48.592;8.850;2024-03-02T07:27:09;26.77;;;12.13;;
3941;SDS011;1985;48.592;8.850;2024-03-02T07:29:35;29.80;;;12.23;;
3941;SDS011;1985;48.592;8.850;2024-03-02T07:32:01;26.88;;;13.00;;
3941;SDS011;1985;48.592;8.850;2024-03-02T07:34:27;25.98;;;12.65;;
3941;SDS011;1985;48.592;8.850;2024-03-02T07:36:52;25.98;;;12.68;;
3941;SDS011;1985;48.592;8.850;2024-03-02T07:39:18;27.05;;;11.38;;
3941;SDS011;1985;48.592;8.850;2024-03-02T07:41:44;26.50;;;12.47;;
3941;SDS011;1985;48.592;8.850;2024-03-02T07:44:12;23.15;;;11.63;;
3941;SDS011;1985;48.592;8.850;2024-03-02T07:46:40;25.85;;;11.65;;
3941;SDS011;1985;48.592;8.850;2024-03-02T07:49:06;28.58;;;12.55;;
3941;SDS011;1985;48.592;8.850;2024-03-02T07:51:32;24.33;;;11.38;;
3941;SDS011;1985;48.592;8.850;2024-03-02T07:53:58;25.95;;;12.50;;
3941;SDS011;1985;48.592;8.850;2024-03-02T07:56:24;26.20;;;13.00;;
3941;SDS011;1985;48.592;8.850;2024-03-02T07:58:49;27.80;;;12.63;;
3941;SDS011;1985;48.592;8.850;2024-03-02T08:01:15;24.90;;;12.30;;
3941;SDS011;1985;48.592;8.850;2024-03-02T08:03:42;26.38;;;12.75;;
3941;SDS011;1985;48.592;8.850;2024-03-02T08:06:12;25.33;;;11.98;;
3941;SDS011;1985;48.592;8.850;2024-03-02T08:08:39;26.77;;;12.52;;
3941;SDS011;1985;48.592;8.850;2024-03-02T08:11:05;27.27;;;13.63;;
3941;SDS011;1985;48.592;8.850;2024-03-02T08:13:31;25.42;;;12.48;;
3941;SDS011;1985;48.592;8.850;2024-03-02T08:15:57;30.67;;;14.00;;
3941;SDS011;1985;48.592;8.850;2024-03-02T08:18:23;27.50;;;12.70;;
3941;SDS011;1985;48.592;8.850;2024-03-02T08:20:49;26.25;;;13.07;;
3941;SDS011;1985;48.592;8.850;2024-03-02T08:23:14;27.60;;;12.63;;
3941;SDS011;1985;48.592;8.850;2024-03-02T08:25:40;27.13;;;13.40;;
3941;SDS011;1985;48.592;8.850;2024-03-02T08:28:06;28.75;;;13.68;;
3941;SDS011;1985;48.592;8.850;2024-03-02T08:30:32;25.50;;;12.38;;
3941;SDS011;1985;48.592;8.850;2024-03-02T08:32:58;26.43;;;12.20;;
3941;SDS011;1985;48.592;8.850;2024-03-02T08:35:23;29.90;;;14.03;;
3941;SDS011;1985;48.592;8.850;2024-03-02T08:37:49;25.95;;;12.80;;
3941;SDS011;1985;48.592;8.850;2024-03-02T08:40:15;26.53;;;13.00;;
3941;SDS011;1985;48.592;8.850;2024-03-02T08:42:41;26.23;;;12.60;;
3941;SDS011;1985;48.592;8.850;2024-03-02T08:45:06;23.40;;;12.40;;
3941;SDS011;1985;48.592;8.850;2024-03-02T08:47:32;24.88;;;12.50;;
3941;SDS011;1985;48.592;8.850;2024-03-02T08:49:59;23.60;;;12.38;;
3941;SDS011;1985;48.592;8.850;2024-03-02T08:52:25;23.42;;;11.63;;
3941;SDS011;1985;48.592;8.850;2024-03-02T08:54:53;23.77;;;12.30;;
3941;SDS011;1985;48.592;8.850;2024-03-02T08:57:19;24.40;;;12.57;;
3941;SDS011;1985;48.592;8.850;2024-03-02T08:59:44;24.30;;;11.90;;
3941;SDS011;1985;48.592;8.850;2024-03-02T09:02:10;25.37;;;12.90;;
3941;SDS011;1985;48.592;8.850;2024-03-02T09:04:36;26.45;;;12.38;;
3941;SDS011;1985;48.592;8.850;2024-03-02T09:07:01;22.42;;;11.30;;
3941;SDS011;1985;48.592;8.850;2024-03-02T09:09:27;22.37;;;11.53;;
3941;SDS011;1985;48.592;8.850;2024-03-02T09:11:53;26.88;;;12.60;;
3941;SDS011;1985;48.592;8.850;2024-03-02T09:14:22;23.30;;;11.93;;
3941;SDS011;1985;48.592;8.850;2024-03-02T09:16:48;25.95;;;12.55;;
3941;SDS011;1985;48.592;8.850;2024-03-02T09:19:14;23.50;;;11.70;;
3941;SDS011;1985;48.592;8.850;2024-03-02T09:21:39;22.73;;;11.00;;
3941;SDS011;1985;48.592;8.850;2024-03-02T09:24:07;23.60;;;11.80;;
3941;SDS011;1985;48.592;8.850;2024-03-02T09:26:33;26.17;;;12.20;;
3941;SDS011;1985;48.592;8.850;2024-03-02T09:28:58;26.20;;;11.80;;
3941;SDS011;1985;48.592;8.850;2024-03-02T09:31:24;25.47;;;10.57;;
3941;SDS011;1985;48.592;8.850;2024-03-02T09:33:49;23.25;;;10.60;;
3941;SDS011;1985;48.592;8.850;2024-03-02T09:36:18;23.30;;;10.17;;
3941;SDS011;1985;48.592;8.850;2024-03-02T09:38:45;22.15;;;10.57;;
3941;SDS011;1985;48.592;8.850;2024-03-02T09:41:11;21.23;;;10.30;;
3941;SDS011;1985;48.592;8.850;2024-03-02T09:43:37;20.33;;;9.98;;
3941;SDS011;1985;48.592;8.850;2024-03-02T09:46:03;18.77;;;8.98;;
3941;SDS011;1985;48.592;8.850;2024-03-02T09:48:29;19.73;;;9.10;;
3941;SDS011;1985;48.592;8.850;2024-03-02T09:50:55;21.48;;;9.75;;
3941;SDS011;1985;48.592;8.850;2024-03-02T09:53:22;20.23;;;9.82;;
3941;SDS011;1985;48.592;8.850;2024-03-02T09:55:48;18.87;;;9.10;;
3941;SDS011;1985;48.592;8.850;2024-03-02T09:58:14;19.17;;;9.30;;
3941;SDS011;1985;48.592;8.850;2024-03-02T10:00:39;19.92;;;9.00;;
3941;SDS011;1985;48.592;8.850;2024-03-02T10:03:05;20.20;;;8.60;;
3941;SDS011;1985;48.592;8.850;2024-03-02T10:05:36;17.50;;;7.77;;
3941;SDS011;1985;48.592;8.850;2024-03-02T10:08:02;18.65;;;8.80;;
3941;SDS011;1985;48.592;8.850;2024-03-02T10:10:35;18.00;;;7.90;;
3941;SDS011;1985;48.592;8.850;2024-03-02T10:13:08;19.30;;;8.95;;
3941;SDS011;1985;48.592;8.850;2024-03-02T10:15:35;15.75;;;7.00;;
3941;SDS011;1985;48.592;8.850;2024-03-02T10:18:08;18.25;;;7.70;;
3941;SDS011;1985;48.592;8.850;2024-03-02T10:20:36;16.90;;;7.53;;
3941;SDS011;1985;48.592;8.850;2024-03-02T10:23:15;14.67;;;6.80;;
3941;SDS011;1985;48.592;8.850;2024-03-02T10:25:42;18.45;;;8.05;;
3941;SDS011;1985;48.592;8.850;2024-03-02T10:28:08;16.27;;;6.60;;
3941;SDS011;1985;48.592;8.850;2024-03-02T10:30:34;17.00;;;7.22;;
3941;SDS011;1985;48.592;8.850;2024-03-02T10:33:01;15.32;;;6.30;;
3941;SDS011;1985;48.592;8.850;2024-03-02T10:35:27;14.85;;;6.05;;
3941;SDS011;1985;48.592;8.850;2024-03-02T10:37:53;15.80;;;5.80;;
3941;SDS011;1985;48.592;8.850;2024-03-02T10:40:23;16.20;;;6.03;;
3941;SDS011;1985;48.592;8.850;2024-03-02T10:42:51;14.68;;;5.30;;
3941;SDS011;1985;48.592;8.850;2024-03-02T10:45:17;14.02;;;5.50;;
3941;SDS011;1985;48.592;8.850;2024-03-02T10:47:45;14.80;;;6.30;;
3941;SDS011;1985;48.592;8.850;2024-03-02T10:50:12;14.30;;;5.90;;
3941;SDS011;1985;48.592;8.850;2024-03-02T10:52:38;13.93;;;5.00;;
3941;SDS011;1985;48.592;8.850;2024-03-02T10:55:04;12.73;;;5.10;;
3941;SDS011;1985;48.592;8.850;2024-03-02T10:57:36;13.40;;;5.17;;
3941;SDS011;1985;48.592;8.850;2024-03-02T11:00:15;13.23;;;4.97;;
3941;SDS011;1985;48.592;8.850;2024-03-02T11:02:46;14.00;;;4.50;;
3941;SDS011;1985;48.592;8.850;2024-03-02T11:05:39;12.10;;;4.60;;
3941;SDS011;1985;48.592;8.850;2024-03-02T11:08:12;12.20;;;4.20;;
3941;SDS011;1985;48.592;8.850;2024-03-02T11:10:45;13.30;;;4.23;;
3941;SDS011;1985;48.592;8.850;2024-03-02T11:13:22;11.73;;;4.15;;
3941;SDS011;1985;48.592;8.850;2024-03-02T11:15:57;12.57;;;4.32;;
3941;SDS011;1985;48.592;8.850;2024-03-02T11:18:28;11.48;;;3.80;;
3941;SDS011;1985;48.592;8.850;2024-03-02T11:20:55;11.75;;;4.00;;
3941;SDS011;1985;48.592;8.850;2024-03-02T11:23:26;11.73;;;3.40;;
3941;SDS011;1985;48.592;8.850;2024-03-02T11:28:45;12.07;;;4.13;;
3941;SDS011;1985;48.592;8.850;2024-03-02T11:31:12;15.70;;;3.27;;
3941;SDS011;1985;48.592;8.850;2024-03-02T11:33:38;10.55;;;3.30;;
3941;SDS011;1985;48.592;8.850;2024-03-02T11:36:04;11.43;;;3.85;;
3941;SDS011;1985;48.592;8.850;2024-03-02T11:38:32;10.80;;;3.28;;
3941;SDS011;1985;48.592;8.850;2024-03-02T11:41:06;10.30;;;2.80;;
3941;SDS011;1985;48.592;8.850;2024-03-02T11:43:36;10.82;;;3.10;;
3941;SDS011;1985;48.592;8.850;2024-03-02T11:46:05;10.95;;;3.30;;
3941;SDS011;1985;48.592;8.850;2024-03-02T11:48:37;10.65;;;3.03;;
3941;SDS011;1985;48.592;8.850;2024-03-02T11:51:04;10.50;;;2.80;;
3941;SDS011;1985;48.592;8.850;2024-03-02T11:53:30;10.10;;;2.30;;
3941;SDS011;1985;48.592;8.850;2024-03-02T11:55:57;9.93;;;2.60;;
3941;SDS011;1985;48.592;8.850;2024-03-02T11:58:23;10.77;;;2.65;;
3941;SDS011;1985;48.592;8.850;2024-03-02T12:00:51;10.17;;;2.83;;
3941;SDS011;1985;48.592;8.850;2024-03-02T12:03:24;11.43;;;3.08;;
3941;SDS011;1985;48.592;8.850;2024-03-02T12:05:51;9.70;;;2.45;;
3941;SDS011;1985;48.592;8.850;2024-03-02T12:08:18;10.65;;;2.63;;
3941;SDS011;1985;48.592;8.850;2024-03-02T12:10:55;11.13;;;2.80;;
3941;SDS011;1985;48.592;8.850;2024-03-02T12:13:24;10.13;;;2.00;;
3941;SDS011;1985;48.592;8.850;2024-03-02T12:15:52;9.73;;;2.50;;
3941;SDS011;1985;48.592;8.850;2024-03-02T12:18:21;9.80;;;2.00;;
3941;SDS011;1985;48.592;8.850;2024-03-02T12:20:48;9.57;;;1.80;;
3941;SDS011;1985;48.592;8.850;2024-03-02T12:23:14;9.10;;;1.60;;
3941;SDS011;1985;48.592;8.850;2024-03-02T12:25:40;8.70;;;1.50;;
3941;SDS011;1985;48.592;8.850;2024-03-02T12:28:06;9.90;;;1.73;;
3941;SDS011;1985;48.592;8.850;2024-03-02T12:30:32;9.23;;;1.70;;
3941;SDS011;1985;48.592;8.850;2024-03-02T12:33:00;9.80;;;1.80;;
3941;SDS011;1985;48.592;8.850;2024-03-02T12:35:27;9.30;;;1.70;;
3941;SDS011;1985;48.592;8.850;2024-03-02T12:37:53;10.13;;;2.10;;
3941;SDS011;1985;48.592;8.850;2024-03-02T12:40:20;9.60;;;1.90;;
3941;SDS011;1985;48.592;8.850;2024-03-02T12:42:48;9.77;;;1.97;;
3941;SDS011;1985;48.592;8.850;2024-03-02T12:45:14;9.80;;;2.00;;
3941;SDS011;1985;48.592;8.850;2024-03-02T12:47:41;9.95;;;2.10;;
3941;SDS011;1985;48.592;8.850;2024-03-02T12:50:07;9.90;;;2.22;;
3941;SDS011;1985;48.592;8.850;2024-03-02T12:52:34;11.05;;;1.80;;
3941;SDS011;1985;48.592;8.850;2024-03-02T12:55:01;10.73;;;2.10;;
3941;SDS011;1985;48.592;8.850;2024-03-02T12:57:29;10.00;;;1.90;;
3941;SDS011;1985;48.592;8.850;2024-03-02T12:59:59;9.88;;;1.90;;
3941;SDS011;1985;48.592;8.850;2024-03-02T13:02:28;9.50;;;1.80;;
3941;SDS011;1985;48.592;8.850;2024-03-02T13:04:56;9.95;;;1.73;;
3941;SDS011;1985;48.592;8.850;2024-03-02T13:07:23;9.48;;;1.70;;
3941;SDS011;1985;48.592;8.850;2024-03-02T13:09:50;9.38;;;1.90;;
3941;SDS011;1985;48.592;8.850;2024-03-02T13:12:16;10.57;;;2.10;;
3941;SDS011;1985;48.592;8.850;2024-03-02T13:14:42;11.02;;;1.80;;
3941;SDS011;1985;48.592;8.850;2024-03-02T13:17:09;9.73;;;1.90;;
3941;SDS011;1985;48.592;8.850;2024-03-02T13:19:34;10.00;;;2.10;;
3941;SDS011;1985;48.592;8.850;2024-03-02T13:22:00;9.75;;;2.08;;
3941;SDS011;1985;48.592;8.850;2024-03-02T13:24:29;10.23;;;2.13;;
3941;SDS011;1985;48.592;8.850;2024-03-02T13:26:56;10.50;;;2.17;;
3941;SDS011;1985;48.592;8.850;2024-03-02T13:29:23;10.00;;;2.20;;
3941;SDS011;1985;48.592;8.850;2024-03-02T13:31:49;10.25;;;2.20;;
3941;SDS011;1985;48.592;8.850;2024-03-02T13:34:15;13.40;;;2.63;;
3941;SDS011;1985;48.592;8.850;2024-03-02T13:36:41;12.20;;;2.20;;
3941;SDS011;1985;48.592;8.850;2024-03-02T13:39:06;10.50;;;2.20;;
3941;SDS011;1985;48.592;8.850;2024-03-02T13:41:35;10.02;;;2.30;;
3941;SDS011;1985;48.592;8.850;2024-03-02T13:44:01;10.75;;;2.50;;
3941;SDS011;1985;48.592;8.850;2024-03-02T13:46:27;10.77;;;2.20;;
3941;SDS011;1985;48.592;8.850;2024-03-02T13:48:54;9.60;;;2.00;;
3941;SDS011;1985;48.592;8.850;2024-03-02T13:51:20;10.43;;;2.20;;
3941;SDS011;1985;48.592;8.850;2024-03-02T13:53:46;9.60;;;1.90;;
3941;SDS011;1985;48.592;8.850;2024-03-02T13:56:11;11.03;;;1.93;;
3941;SDS011;1985;48.592;8.850;2024-03-02T13:58:37;9.95;;;2.20;;
3941;SDS011;1985;48.592;8.850;2024-03-02T14:01:03;9.70;;;2.10;;
3941;SDS011;1985;48.592;8.850;2024-03-02T14:03:30;9.50;;;1.90;;
3941;SDS011;1985;48.592;8.850;2024-03-02T14:05:56;10.27;;;2.10;;
3941;SDS011;1985;48.592;8.850;2024-03-02T14:08:22;9.70;;;1.90;;
3941;SDS011;1985;48.592;8.850;2024-03-02T14:10:48;10.00;;;1.80;;
3941;SDS011;1985;48.592;8.850;2024-03-02T14:13:14;10.10;;;2.00;;
3941;SDS011;1985;48.592;8.850;2024-03-02T14:15:40;9.82;;;1.80;;
3941;SDS011;1985;48.592;8.850;2024-03-02T14:18:06;10.70;;;2.20;;
3941;SDS011;1985;48.592;8.850;2024-03-02T14:20:35;10.70;;;2.00;;
3941;SDS011;1985;48.592;8.850;2024-03-02T14:23:00;10.40;;;2.40;;
3941;SDS011;1985;48.592;8.850;2024-03-02T14:25:27;10.93;;;1.90;;
3941;SDS011;1985;48.592;8.850;2024-03-02T14:27:56;9.95;;;2.00;;
3941;SDS011;1985;48.592;8.850;2024-03-02T14:30:22;11.25;;;1.70;;
3941;SDS011;1985;48.592;8.850;2024-03-02T14:32:48;9.10;;;1.70;;
3941;SDS011;1985;48.592;8.850;2024-03-02T14:35:14;10.57;;;2.25;;
3941;SDS011;1985;48.592;8.850;2024-03-02T14:37:40;9.57;;;2.00;;
3941;SDS011;1985;48.592;8.850;2024-03-02T14:40:06;9.93;;;1.80;;
3941;SDS011;1985;48.592;8.850;2024-03-02T14:42:34;8.90;;;1.50;;
3941;SDS011;1985;48.592;8.850;2024-03-02T14:45:00;9.82;;;1.73;;
3941;SDS011;1985;48.592;8.850;2024-03-02T14:47:29;9.88;;;1.90;;
3941;SDS011;1985;48.592;8.850;2024-03-02T14:49:59;11.55;;;1.67;;
3941;SDS011;1985;48.592;8.850;2024-03-02T14:52:25;10.20;;;2.30;;
3941;SDS011;1985;48.592;8.850;2024-03-02T14:54:50;9.65;;;1.90;;
3941;SDS011;1985;48.592;8.850;2024-03-02T14:57:16;10.40;;;2.20;;